Startpagina
METAR-TAF:

METAR-TAF

Vliegvelden :

Flughafen Siegerland

Siegen, Duitsland

breedte: 50-42-28N, lengte: 008-04-59E, hoogte: 602 m

Actueel weer

Dit bericht is 16 minuten geleden gemaakt, om 15:20 UTC
Wind 8 kt uit het oosten, variërend tussen het noordoosten en het oostzuidoosten
Temperatuur 17°C
Vochtigheid 34%
Druk 1025 hPa
Zicht 10 km of meer
geen wolken onder 1500 m en geen cumulonimbus

METAR: EDGS 291520Z 08008KT 050V120 CAVOK 17/01 Q1025

Tijdstip: 17:36 (15:36 UTC)

Verwachting

Dit bericht is 1 uur en het 36 minuten geleden gemaakt, om 14:00 UTC
Verwachting geldig van 29 om 15 UTC tot 29 om 24 UTC
Wind 10 kt uit het oosten
Zicht 10 km of meer
geen wolken onder 1500 m en geen cumulonimbus
Wijzigt naar
van 29 om 22 UTC tot 29 om 24 UTC
Wind 5 kt uit het oosten

TAF: EDGS 291400Z 2915/2924 08010KT CAVOK BECMG 2922/2924 08005KT

Waarnemingen en weersverwachtingen van meer dan 4000 vliegvelden (METAR en TAF).

De beschikbare stations zijn de gele en rode punten op de kaart.

Ga met uw muis naar het station om de naam te zien.

Klik dan om waarnemingen en weersverwachtingen te zien.

kaart wijzigen: klik op de groene knoppen met een zwart kruis om in te zoomen, op de groene knop met een streepje om uit te zoomen of op de groene pijlen voor aangrenzende kaarten.


METAR-TAF: